Time;durP1;ratioP1;P1;durP2;ratioP2;P2;SDS_P1;SDS_P2;PMS_P1;PMS_P2;Temp;Humidity;BMP_temperature;BMP_pressure;BME280_temperature;BME280_humidity;BME280_pressure;Samples;Min_cycle;Max_cycle;Signal;HPM_P1;HPM_P2
2021/05/02 00:01:18;;;;;;;27.97;23.50;;;7.20;86.40;;;;;;5052283;28;20696;-89
2021/05/02 00:03:44;;;;;;;28.60;23.87;;;7.10;86.50;;;;;;5052154;28;20233;-88
2021/05/02 00:06:11;;;;;;;26.53;22.67;;;7.00;86.50;;;;;;5051778;28;20241;-89
2021/05/02 00:08:38;;;;;;;30.33;23.67;;;7.00;86.70;;;;;;5053029;28;20267;-88
2021/05/02 00:11:05;;;;;;;30.07;24.10;;;6.80;86.90;;;;;;5053054;28;20264;-89
2021/05/02 00:13:31;;;;;;;26.70;22.83;;;6.80;87.10;;;;;;5053411;28;20175;-88
2021/05/02 00:15:57;;;;;;;24.93;21.43;;;6.80;87.20;;;;;;5051765;28;20207;-89
2021/05/02 00:18:27;;;;;;;25.93;20.47;;;6.80;86.90;;;;;;5053043;28;20176;-88
2021/05/02 00:20:53;;;;;;;24.23;19.20;;;6.80;86.60;;;;;;5051880;28;20184;-88
2021/05/02 00:23:19;;;;;;;20.37;18.00;;;6.80;86.50;;;;;;5051855;28;20176;-88
2021/05/02 00:25:46;;;;;;;20.13;17.97;;;6.70;86.30;;;;;;5051706;28;20208;-88
2021/05/02 00:28:12;;;;;;;19.97;17.23;;;6.80;86.20;;;;;;5051779;28;20266;-88
2021/05/02 00:30:38;;;;;;;21.30;18.40;;;6.70;85.80;;;;;;5052011;28;20262;-88
2021/05/02 00:33:04;;;;;;;19.90;17.40;;;6.70;85.60;;;;;;5051672;28;20261;-88
2021/05/02 00:35:30;;;;;;;21.87;17.60;;;6.60;85.60;;;;;;5052729;28;20205;-88
2021/05/02 00:37:56;;;;;;;19.90;17.80;;;6.50;85.60;;;;;;5051762;28;20640;-88
2021/05/02 00:40:36;;;;;;;19.57;17.47;;;6.50;85.60;;;;;;5051809;28;20184;-88
2021/05/02 00:43:12;;;;;;;21.83;17.10;;;6.50;85.50;;;;;;5053189;28;20640;-88
2021/05/02 00:46:05;;;;;;;25.63;21.20;;;6.50;85.30;;;;;;5051500;28;20592;-88
2021/05/02 00:48:56;;;;;;;28.27;20.33;;;6.50;85.30;;;;;;5051647;28;20172;-88
2021/05/02 00:51:23;;;;;;;28.23;20.13;;;6.40;85.50;;;;;;5051463;28;20294;-88
2021/05/02 00:54:07;;;;;;;23.93;20.33;;;6.30;86.20;;;;;;5052662;28;20647;-88
2021/05/02 00:56:45;;;;;;;25.97;19.47;;;6.30;87.30;;;;;;5056892;28;20215;-88
2021/05/02 00:59:21;;;;;;;19.67;17.57;;;6.10;87.70;;;;;;5055302;28;20278;-88
2021/05/02 01:01:52;;;;;;;22.77;18.47;;;6.10;87.90;;;;;;5055165;28;20633;-88
2021/05/02 01:04:31;;;;;;;21.57;19.17;;;6.00;88.30;;;;;;5056550;28;20219;-88
2021/05/02 01:07:03;;;;;;;21.87;18.37;;;5.90;88.80;;;;;;5056174;28;20196;-88
2021/05/02 01:09:30;;;;;;;25.53;18.47;;;6.00;88.80;;;;;;5055151;28;20202;-88
2021/05/02 01:11:59;;;;;;;27.93;22.70;;;5.90;88.40;;;;;;5054837;28;20655;-88
2021/05/02 01:14:26;;;;;;;32.50;24.93;;;5.90;88.30;;;;;;5056034;28;20182;-89
2021/05/02 01:16:55;;;;;;;34.90;27.13;;;5.80;88.80;;;;;;5054687;28;20208;-88
2021/05/02 01:19:21;;;;;;;35.60;27.73;;;5.70;89.40;;;;;;5054745;28;20183;-88
2021/05/02 01:21:50;;;;;;;37.60;28.63;;;5.80;89.60;;;;;;5056215;28;20739;-88
2021/05/02 01:24:16;;;;;;;39.33;27.77;;;5.70;89.60;;;;;;5054523;28;20217;-88
2021/05/02 01:26:44;;;;;;;33.83;27.80;;;5.70;89.50;;;;;;5055792;28;20651;-88
2021/05/02 01:29:10;;;;;;;39.47;28.60;;;5.70;89.40;;;;;;5055357;28;20270;-88
2021/05/02 01:31:36;;;;;;;32.53;26.53;;;5.70;89.30;;;;;;5054527;28;20213;-88
2021/05/02 01:34:02;;;;;;;45.07;32.43;;;5.70;89.20;;;;;;5054456;28;20581;-88
2021/05/02 01:36:28;;;;;;;42.83;29.13;;;5.60;89.10;;;;;;5055329;28;20271;-88
2021/05/02 01:38:56;;;;;;;40.00;29.07;;;5.60;89.20;;;;;;5055668;28;20186;-88
2021/05/02 01:41:25;;;;;;;42.77;30.27;;;5.50;89.40;;;;;;5054298;28;20549;-88
2021/05/02 01:43:51;;;;;;;40.10;29.10;;;5.50;89.60;;;;;;5054564;28;20221;-88
2021/05/02 01:46:46;;;;;;;40.30;30.67;;;5.40;89.70;;;;;;5055425;28;20205;-88
2021/05/02 01:49:17;;;;;;;44.33;30.70;;;5.40;89.70;;;;;;5053491;28;20190;-88
2021/05/02 01:51:44;;;;;;;46.97;30.90;;;5.40;89.70;;;;;;5054154;28;20195;-88
2021/05/02 01:54:14;;;;;;;39.23;28.50;;;5.50;89.70;;;;;;5054154;28;20177;-88
2021/05/02 01:56:41;;;;;;;36.17;29.07;;;5.50;89.50;;;;;;5053901;28;20205;-88
2021/05/02 01:59:07;;;;;;;46.63;31.80;;;5.40;89.30;;;;;;5053951;28;20183;-88
2021/05/02 02:01:33;;;;;;;47.93;31.70;;;5.40;89.40;;;;;;5053989;28;20186;-88
2021/05/02 02:04:28;;;;;;;69.10;33.27;;;5.40;89.80;;;;;;5053796;28;20265;-88
2021/05/02 02:06:55;;;;;;;58.43;31.63;;;5.40;90.00;;;;;;5053128;28;20194;-88
2021/05/02 02:09:21;;;;;;;46.07;33.57;;;5.30;90.20;;;;;;5053884;28;20209;-88
2021/05/02 02:11:50;;;;;;;92.47;38.97;;;5.40;90.20;;;;;;5053983;28;20193;-88
2021/05/02 02:14:16;;;;;;;216.63;36.57;;;5.40;90.20;;;;;;5053687;28;20185;-88
2021/05/02 02:16:43;;;;;;;114.50;35.23;;;5.30;90.10;;;;;;5054793;28;20185;-88
2021/05/02 02:19:08;;;;;;;126.53;33.10;;;5.30;90.20;;;;;;5053615;28;20660;-88
2021/05/02 02:21:36;;;;;;;51.27;29.57;;;5.30;90.20;;;;;;5053606;28;20174;-88
2021/05/02 02:24:03;;;;;;;42.47;30.90;;;5.30;89.90;;;;;;5053439;28;20181;-88
2021/05/02 02:26:37;;;;;;;39.17;30.20;;;5.30;89.60;;;;;;5054556;28;20198;-88
2021/05/02 02:29:05;;;;;;;43.30;31.93;;;5.30;89.30;;;;;;5054518;28;20178;-88
2021/05/02 02:31:33;;;;;;;44.83;33.00;;;5.30;89.00;;;;;;5054692;28;20599;-89
2021/05/02 02:33:59;;;;;;;47.87;33.87;;;5.20;89.20;;;;;;5053418;28;20178;-88
2021/05/02 02:36:25;;;;;;;41.83;31.57;;;5.20;89.50;;;;;;5053258;28;20211;-89
2021/05/02 02:38:51;;;;;;;45.27;32.63;;;5.20;89.40;;;;;;5054522;28;20166;-88
2021/05/02 02:41:18;;;;;;;41.90;31.13;;;5.20;89.30;;;;;;5053123;28;20665;-88
2021/05/02 02:43:58;;;;;;;46.23;32.73;;;5.20;89.30;;;;;;5053175;28;20551;-88
2021/05/02 02:46:25;;;;;;;45.13;32.83;;;5.10;89.20;;;;;;5052987;28;20331;-88
2021/05/02 02:48:55;;;;;;;37.77;29.50;;;5.20;89.40;;;;;;5053067;28;20265;-89
2021/05/02 02:51:22;;;;;;;38.57;29.47;;;5.20;89.20;;;;;;5053463;28;20280;-88
2021/05/02 02:53:50;;;;;;;37.80;28.57;;;5.10;89.10;;;;;;5053050;28;20178;-88
2021/05/02 02:56:21;;;;;;;40.53;30.60;;;5.10;89.00;;;;;;5052837;28;20280;-89
2021/05/02 02:59:03;;;;;;;40.33;30.30;;;5.10;89.00;;;;;;5054330;28;20191;-89
2021/05/02 03:01:29;;;;;;;43.40;31.80;;;5.10;89.20;;;;;;5054091;28;20161;-88
2021/05/02 03:04:00;;;;;;;43.20;31.47;;;5.10;89.40;;;;;;5052852;28;20211;-88
2021/05/02 03:06:28;;;;;;;41.90;31.27;;;5.10;89.60;;;;;;5052850;28;20228;-88
2021/05/02 03:08:56;;;;;;;43.07;31.77;;;5.10;89.60;;;;;;5052653;28;20188;-88
2021/05/02 03:11:22;;;;;;;42.43;30.10;;;5.10;89.60;;;;;;5052631;28;20661;-88
2021/05/02 03:13:48;;;;;;;42.23;31.70;;;5.10;89.60;;;;;;5052855;28;20177;-88
2021/05/02 03:16:20;;;;;;;39.63;29.73;;;5.00;89.40;;;;;;5052454;28;20205;-88
2021/05/02 03:19:19;;;;;;;41.60;30.37;;;5.00;89.30;;;;;;5051816;28;20166;-88
2021/05/02 03:21:50;;;;;;;39.53;30.20;;;5.00;89.20;;;;;;5031650;28;20191;-89
2021/05/02 03:24:23;;;;;;;36.20;28.57;;;5.00;88.90;;;;;;5052440;28;20177;-88
2021/05/02 03:26:49;;;;;;;41.00;30.70;;;4.90;88.80;;;;;;5052611;28;20202;-88
2021/05/02 03:29:16;;;;;;;41.90;31.53;;;4.90;88.80;;;;;;5052602;28;20272;-88
2021/05/02 03:31:48;;;;;;;46.73;33.77;;;4.80;88.80;;;;;;5052267;28;20180;-88
2021/05/02 03:34:17;;;;;;;44.20;31.00;;;4.80;88.90;;;;;;5052567;28;20266;-89
2021/05/02 03:36:50;;;;;;;41.80;32.07;;;4.80;89.10;;;;;;5052340;28;20265;-88
2021/05/02 03:39:16;;;;;;;47.53;33.87;;;4.80;89.10;;;;;;5052197;28;20222;-88
2021/05/02 03:41:42;;;;;;;50.30;36.30;;;4.80;89.10;;;;;;5053330;28;20170;-88
2021/05/02 03:44:08;;;;;;;49.00;34.57;;;4.80;89.60;;;;;;5053298;28;20168;-88
2021/05/02 03:46:34;;;;;;;42.43;31.97;;;4.80;89.90;;;;;;5053530;28;20201;-88
2021/05/02 03:49:07;;;;;;;40.50;30.50;;;4.80;89.90;;;;;;5051978;28;20617;-88
2021/05/02 03:51:39;;;;;;;40.23;29.67;;;4.80;89.80;;;;;;5053178;28;20214;-88
2021/05/02 03:54:05;;;;;;;38.80;28.73;;;4.70;90.00;;;;;;5051979;28;20267;-88
2021/05/02 03:56:38;;;;;;;46.37;31.67;;;4.80;90.20;;;;;;5051956;28;20225;-88
2021/05/02 03:59:14;;;;;;;44.10;31.77;;;4.80;90.70;;;;;;5053380;28;20171;-88
2021/05/02 04:01:48;;;;;;;42.77;31.53;;;4.80;91.20;;;;;;5051920;28;20164;-88
2021/05/02 04:04:15;;;;;;;41.03;29.80;;;4.80;91.50;;;;;;5052138;28;20175;-88
2021/05/02 04:06:41;;;;;;;44.40;31.13;;;4.80;91.50;;;;;;5052241;28;20333;-88
2021/05/02 04:09:08;;;;;;;41.83;29.90;;;4.80;91.40;;;;;;5052197;28;20274;-89
2021/05/02 04:11:34;;;;;;;40.47;30.20;;;4.90;91.40;;;;;;5051783;28;20258;-88
2021/05/02 04:14:05;;;;;;;37.50;28.07;;;4.90;91.40;;;;;;5053008;28;20249;-88
2021/05/02 04:16:31;;;;;;;35.27;27.63;;;4.90;91.40;;;;;;5053321;28;20203;-88
2021/05/02 04:18:58;;;;;;;38.23;28.30;;;5.00;91.50;;;;;;5051750;28;20176;-88
2021/05/02 04:21:24;;;;;;;36.07;26.67;;;4.90;91.50;;;;;;5052459;28;20551;-88
2021/05/02 04:23:50;;;;;;;36.10;28.73;;;4.90;91.50;;;;;;5052498;28;20180;-88
2021/05/02 04:26:16;;;;;;;45.23;30.70;;;5.00;91.60;;;;;;5052802;28;20276;-88
2021/05/02 04:28:42;;;;;;;39.00;29.13;;;5.00;91.70;;;;;;5053397;28;20180;-88
2021/05/02 04:31:07;;;;;;;35.47;26.80;;;5.00;91.70;;;;;;5057205;28;20525;-89
2021/05/02 04:33:33;;;;;;;38.03;27.90;;;5.00;91.70;;;;;;5055681;28;20190;-89
2021/05/02 04:35:59;;;;;;;32.50;26.73;;;5.00;91.60;;;;;;5055422;28;20219;-88
2021/05/02 04:38:24;;;;;;;35.03;26.20;;;5.00;91.50;;;;;;5055733;28;20187;-88
2021/05/02 04:40:50;;;;;;;36.13;26.57;;;5.00;91.40;;;;;;5055639;28;20181;-88
2021/05/02 04:43:16;;;;;;;35.93;26.83;;;5.00;91.40;;;;;;5055440;28;20183;-88
2021/05/02 04:45:41;;;;;;;34.77;26.90;;;5.00;91.50;;;;;;5055260;28;20266;-89
2021/05/02 04:48:07;;;;;;;35.57;27.50;;;5.00;91.50;;;;;;5055252;28;20549;-89
2021/05/02 04:50:33;;;;;;;34.70;27.60;;;5.10;91.60;;;;;;5055609;28;20367;-88
2021/05/02 04:53:00;;;;;;;37.63;27.27;;;5.10;91.70;;;;;;5055307;28;20200;-89
2021/05/02 04:55:26;;;;;;;36.20;27.23;;;5.10;91.70;;;;;;5055402;28;20184;-88
2021/05/02 04:57:52;;;;;;;38.37;29.23;;;5.20;91.80;;;;;;5056343;28;20175;-88
2021/05/02 05:00:19;;;;;;;38.27;29.40;;;5.20;91.90;;;;;;5055103;28;20179;-88
2021/05/02 05:02:44;;;;;;;40.40;29.40;;;5.20;92.00;;;;;;5080806;22;20232;-87
2021/05/02 05:05:10;;;;;;;41.10;29.53;;;5.20;91.90;;;;;;5057511;28;20257;-87
2021/05/02 05:07:36;;;;;;;36.47;27.77;;;5.30;92.00;;;;;;5055446;28;20180;-86
2021/05/02 05:10:03;;;;;;;37.43;29.27;;;5.30;92.00;;;;;;5055745;28;20180;-86
2021/05/02 05:12:28;;;;;;;41.13;29.00;;;5.30;91.90;;;;;;5055454;28;20232;-86
2021/05/02 05:14:54;;;;;;;43.50;29.33;;;5.40;92.00;;;;;;5055454;28;20185;-87
2021/05/02 05:17:19;;;;;;;40.47;28.90;;;5.40;92.00;;;;;;5056576;28;20195;-86
2021/05/02 05:19:45;;;;;;;40.53;29.27;;;5.40;91.90;;;;;;5055273;28;20171;-86
2021/05/02 05:22:11;;;;;;;44.50;30.57;;;5.50;92.00;;;;;;5055078;28;20199;-86
2021/05/02 05:24:37;;;;;;;42.47;30.57;;;5.50;92.10;;;;;;5056608;28;20564;-86
2021/05/02 05:27:03;;;;;;;38.13;29.53;;;5.60;92.20;;;;;;5056469;28;20175;-86
2021/05/02 05:29:29;;;;;;;43.73;30.30;;;5.70;92.30;;;;;;5056592;28;20196;-86
2021/05/02 05:31:55;;;;;;;37.77;29.33;;;5.70;92.10;;;;;;5056311;28;20222;-86
2021/05/02 05:34:20;;;;;;;39.57;30.17;;;5.70;92.20;;;;;;5056402;28;20192;-86
2021/05/02 05:36:46;;;;;;;40.90;30.20;;;5.80;92.10;;;;;;5056438;28;20164;-86
2021/05/02 05:39:12;;;;;;;38.13;29.73;;;5.80;92.10;;;;;;5056097;28;20175;-86
2021/05/02 05:41:37;;;;;;;40.23;30.47;;;5.90;92.10;;;;;;5055190;28;20256;-86
2021/05/02 05:44:03;;;;;;;40.10;30.87;;;5.90;92.10;;;;;;5055095;28;20204;-86
2021/05/02 05:46:29;;;;;;;36.37;28.53;;;6.00;92.10;;;;;;5055932;28;20199;-86
2021/05/02 05:48:54;;;;;;;39.17;29.30;;;6.00;92.20;;;;;;5054928;28;20202;-87
2021/05/02 05:51:20;;;;;;;39.83;28.77;;;6.10;92.20;;;;;;5056011;28;20169;-86
2021/05/02 05:53:46;;;;;;;35.87;28.57;;;6.20;92.20;;;;;;5055874;28;20689;-86
2021/05/02 05:56:11;;;;;;;35.67;27.90;;;6.30;92.20;;;;;;5054278;28;20174;-87
2021/05/02 05:58:37;;;;;;;39.50;29.57;;;6.30;92.20;;;;;;5054502;28;20179;-86
2021/05/02 06:01:03;;;;;;;35.63;28.00;;;6.30;92.00;;;;;;5054626;28;20178;-86
2021/05/02 06:03:28;;;;;;;33.77;27.63;;;6.30;91.90;;;;;;5055052;28;20218;-86
2021/05/02 06:05:54;;;;;;;32.80;25.73;;;6.50;91.80;;;;;;5055597;28;20196;-86
2021/05/02 06:08:19;;;;;;;33.30;26.50;;;6.50;91.80;;;;;;5054138;28;20173;-86
2021/05/02 06:10:45;;;;;;;33.20;26.20;;;6.60;91.70;;;;;;5054469;28;20525;-87
2021/05/02 06:13:10;;;;;;;36.57;28.13;;;6.60;91.80;;;;;;5054307;28;20240;-86
2021/05/02 06:15:36;;;;;;;38.57;28.00;;;6.70;91.80;;;;;;5054052;28;20246;-86
2021/05/02 06:18:02;;;;;;;36.53;28.20;;;6.80;91.90;;;;;;5055795;28;20175;-88
2021/05/02 06:20:27;;;;;;;35.03;27.50;;;6.80;91.80;;;;;;5054182;28;20207;-86
2021/05/02 06:22:54;;;;;;;39.20;29.07;;;6.80;91.70;;;;;;5055320;28;20194;-86
2021/05/02 06:25:20;;;;;;;39.57;28.60;;;6.90;91.50;;;;;;5055372;28;20217;-86
2021/05/02 06:27:45;;;;;;;37.23;28.07;;;7.00;91.60;;;;;;5055224;28;20519;-86
2021/05/02 06:30:12;;;;;;;36.87;28.50;;;7.00;91.50;;;;;;5055509;28;20170;-86
2021/05/02 06:32:38;;;;;;;33.53;27.67;;;7.10;91.40;;;;;;5053653;28;20194;-86
2021/05/02 06:35:05;;;;;;;36.33;28.77;;;7.20;91.40;;;;;;5054810;28;20179;-87
2021/05/02 06:37:31;;;;;;;34.00;26.93;;;7.30;91.30;;;;;;5053444;28;20185;-87
2021/05/02 06:39:57;;;;;;;31.90;26.27;;;7.30;91.30;;;;;;5055000;28;20551;-86
2021/05/02 06:42:23;;;;;;;33.43;25.47;;;7.30;90.70;;;;;;5053876;28;20618;-86
2021/05/02 06:44:52;;;;;;;33.23;25.60;;;7.20;90.50;;;;;;5053569;28;20233;-85
2021/05/02 06:47:18;;;;;;;33.57;27.93;;;7.20;90.30;;;;;;5053459;28;20175;-86
2021/05/02 06:49:44;;;;;;;37.27;30.60;;;7.20;90.40;;;;;;5054603;28;20270;-86
2021/05/02 06:52:10;;;;;;;34.50;28.43;;;7.50;91.10;;;;;;5053139;28;20183;-85
2021/05/02 06:54:35;;;;;;;35.27;27.17;;;7.60;91.00;;;;;;5053369;28;20191;-86
2021/05/02 06:57:01;;;;;;;34.53;27.93;;;7.60;90.90;;;;;;5053374;28;20176;-86
2021/05/02 06:59:26;;;;;;;34.03;26.17;;;7.60;90.40;;;;;;5053664;28;20175;-86
2021/05/02 07:01:52;;;;;;;36.00;26.83;;;7.60;90.00;;;;;;5053905;28;20203;-85
2021/05/02 07:04:18;;;;;;;37.43;28.33;;;7.60;90.10;;;;;;5053484;28;20650;-86
2021/05/02 07:06:44;;;;;;;37.47;29.60;;;7.70;90.20;;;;;;5053525;28;20770;-85
2021/05/02 07:09:09;;;;;;;35.20;29.03;;;7.80;90.40;;;;;;5055410;28;20202;-85
2021/05/02 07:11:35;;;;;;;32.03;27.60;;;7.80;90.20;;;;;;5054908;28;20643;-86
2021/05/02 07:14:02;;;;;;;34.50;28.00;;;7.80;89.90;;;;;;5053479;28;20250;-85
2021/05/02 07:16:28;;;;;;;39.47;28.33;;;7.80;89.40;;;;;;5053588;28;20183;-85
2021/05/02 07:18:54;;;;;;;36.47;30.03;;;7.80;89.30;;;;;;5053229;28;20241;-85
2021/05/02 07:21:20;;;;;;;31.30;27.43;;;8.00;89.60;;;;;;5054482;28;20171;-86
2021/05/02 07:23:51;;;;;;;31.90;24.97;;;8.20;89.90;;;;;;5052966;28;20261;-86
2021/05/02 07:26:21;;;;;;;34.40;29.50;;;8.30;89.70;;;;;;5053239;28;20199;-86
2021/05/02 07:28:47;;;;;;;34.73;26.87;;;8.30;89.10;;;;;;5052852;28;20164;-85
2021/05/02 07:31:12;;;;;;;34.30;29.10;;;8.30;89.20;;;;;;5052813;28;20175;-86
2021/05/02 07:33:39;;;;;;;32.53;27.60;;;8.40;89.00;;;;;;5054596;28;20192;-86
2021/05/02 07:36:05;;;;;;;34.17;27.67;;;8.30;88.50;;;;;;5053224;28;20314;-86
2021/05/02 07:38:31;;;;;;;33.03;27.07;;;8.50;88.80;;;;;;5053435;28;20222;-86
2021/05/02 07:40:57;;;;;;;39.97;27.53;;;8.40;87.80;;;;;;5054566;28;20250;-86
2021/05/02 07:43:23;;;;;;;31.00;24.60;;;8.50;88.10;;;;;;5053036;28;20688;-86
2021/05/02 07:45:49;;;;;;;26.03;22.60;;;8.70;87.80;;;;;;5054594;28;20203;-86
2021/05/02 07:48:15;;;;;;;25.80;22.43;;;8.60;86.00;;;;;;5054659;28;20633;-86
2021/05/02 07:50:41;;;;;;;26.03;21.90;;;8.80;86.70;;;;;;5053897;28;20206;-86
2021/05/02 07:53:07;;;;;;;25.93;20.53;;;8.80;85.40;;;;;;5054424;28;20191;-86
2021/05/02 07:55:33;;;;;;;28.07;21.20;;;8.90;86.20;;;;;;5053699;28;20176;-86
2021/05/02 07:57:59;;;;;;;22.83;20.03;;;9.00;85.70;;;;;;5053214;28;20657;-86
2021/05/02 08:00:26;;;;;;;17.43;15.37;;;9.00;83.90;;;;;;5055056;28;20263;-85
2021/05/02 08:02:54;;;;;;;16.93;15.07;;;9.00;83.60;;;;;;5053595;28;20719;-86
2021/05/02 08:05:20;;;;;;;18.00;14.17;;;9.10;83.30;;;;;;5059362;28;20206;-86
2021/05/02 08:07:45;;;;;;;19.97;15.43;;;9.10;82.50;;;;;;5059942;28;20174;-87
2021/05/02 08:10:12;;;;;;;14.03;11.93;;;9.40;82.60;;;;;;5061544;28;20164;-86
2021/05/02 08:12:37;;;;;;;13.03;11.63;;;9.50;82.00;;;;;;5061380;28;20188;-86
2021/05/02 08:15:05;;;;;;;16.37;13.33;;;9.50;80.80;;;;;;5061069;28;20184;-86
2021/05/02 08:17:31;;;;;;;14.50;11.33;;;9.50;82.80;;;;;;5060085;28;20187;-86
2021/05/02 08:19:56;;;;;;;14.20;11.40;;;9.50;80.40;;;;;;5060157;28;20171;-86
2021/05/02 08:22:22;;;;;;;12.13;10.60;;;9.40;80.90;;;;;;5060075;28;20181;-85
2021/05/02 08:24:47;;;;;;;13.80;11.17;;;9.30;80.40;;;;;;5060805;28;20298;-86
2021/05/02 08:27:13;;;;;;;17.50;10.43;;;9.30;80.60;;;;;;5062031;28;20172;-86
2021/05/02 08:29:39;;;;;;;11.93;10.33;;;9.30;81.70;;;;;;5059936;28;20175;-86
2021/05/02 08:32:05;;;;;;;11.73;9.17;;;9.40;81.20;;;;;;5061415;28;20175;-86
2021/05/02 08:34:31;;;;;;;12.73;8.93;;;9.60;81.90;;;;;;5060202;28;20211;-86
2021/05/02 08:36:56;;;;;;;7.50;6.67;;;9.70;81.10;;;;;;5060945;28;20205;-86
2021/05/02 08:39:22;;;;;;;8.33;6.23;;;9.70;78.20;;;;;;5060911;28;20172;-86
2021/05/02 08:41:48;;;;;;;7.07;6.07;;;9.60;77.10;;;;;;5061839;28;20180;-87
2021/05/02 08:44:17;;;;;;;6.57;5.97;;;9.70;77.90;;;;;;5061064;28;20200;-86
2021/05/02 08:46:43;;;;;;;13.40;8.17;;;9.70;76.60;;;;;;5061298;28;20232;-86
2021/05/02 08:49:09;;;;;;;10.87;8.77;;;9.80;77.00;;;;;;5060945;28;20172;-86
2021/05/02 08:51:35;;;;;;;9.60;8.37;;;9.80;78.90;;;;;;5062904;28;20191;-87
2021/05/02 08:54:00;;;;;;;6.27;5.13;;;10.10;78.70;;;;;;5061877;28;20200;-87
2021/05/02 08:56:26;;;;;;;4.80;4.40;;;10.30;76.30;;;;;;5061933;28;20176;-86
2021/05/02 08:58:51;;;;;;;7.47;6.03;;;10.30;74.30;;;;;;5061632;28;20183;-87
2021/05/02 09:01:28;;;;;;;8.47;6.97;;;10.40;73.90;;;;;;5060674;28;20530;-87
2021/05/02 09:03:54;;;;;;;6.63;5.63;;;10.50;73.90;;;;;;5059849;28;20226;-87
2021/05/02 09:06:21;;;;;;;9.20;6.63;;;10.50;71.30;;;;;;5061372;28;20203;-87
2021/05/02 09:08:47;;;;;;;6.83;6.23;;;10.70;74.00;;;;;;5060255;28;20199;-87
2021/05/02 09:11:16;;;;;;;7.03;6.23;;;10.90;71.50;;;;;;5060492;28;20176;-86
2021/05/02 09:13:47;;;;;;;7.00;6.30;;;10.90;69.00;;;;;;5061589;28;20626;-86
2021/05/02 09:16:14;;;;;;;9.23;7.77;;;10.80;73.80;;;;;;5057364;28;20207;-86
2021/05/02 09:18:46;;;;;;;8.47;7.53;;;10.90;73.20;;;;;;5060021;28;20598;-86
2021/05/02 09:21:38;;;;;;;9.47;7.63;;;10.80;72.40;;;;;;5058431;28;20551;-85
2021/05/02 09:24:07;;;;;;;10.50;7.63;;;10.20;72.70;;;;;;5056681;28;20269;-86
2021/05/02 09:26:35;;;;;;;8.90;8.00;;;10.30;73.20;;;;;;5059961;28;20668;-86
2021/05/02 09:29:03;;;;;;;12.20;8.53;;;10.10;73.80;;;;;;5059556;28;20255;-85
2021/05/02 09:31:34;;;;;;;11.97;8.33;;;10.30;75.10;;;;;;5058102;28;20243;-87
2021/05/02 09:34:15;;;;;;;9.23;8.30;;;10.30;74.90;;;;;;5058370;28;20191;-86
2021/05/02 09:36:51;;;;;;;9.80;8.10;;;10.00;74.30;;;;;;5056791;28;20615;-86
2021/05/02 09:39:50;;;;;;;8.83;7.30;;;9.80;73.20;;;;;;5056287;28;20186;-86
2021/05/02 09:42:20;;;;;;;9.33;7.33;;;9.80;73.80;;;;;;5056530;28;20192;-86
2021/05/02 09:44:47;;;;;;;8.43;7.53;;;9.70;74.00;;;;;;5057537;28;20227;-87
2021/05/02 09:47:34;;;;;;;10.60;8.33;;;9.70;74.50;;;;;;5056859;28;20222;-87
2021/05/02 09:50:16;;;;;;;9.97;7.87;;;9.80;76.10;;;;;;5057813;28;20175;-87
2021/05/02 09:53:01;;;;;;;10.77;7.70;;;9.70;75.20;;;;;;5057997;28;20183;-87
2021/05/02 09:55:34;;;;;;;11.27;8.50;;;9.80;76.10;;;;;;5058380;28;20177;-87
2021/05/02 09:58:10;;;;;;;13.27;8.47;;;9.80;75.40;;;;;;5058243;28;20251;-87
2021/05/02 10:00:44;;;;;;;9.50;8.50;;;9.80;75.30;;;;;;5058173;28;20155;-87
2021/05/02 10:03:14;;;;;;;12.77;8.40;;;9.90;74.30;;;;;;5057700;28;20393;-87
2021/05/02 10:06:11;;;;;;;15.87;8.63;;;10.00;75.40;;;;;;5057845;28;20575;-87
2021/05/02 10:08:40;;;;;;;9.33;8.43;;;10.00;74.40;;;;;;5049283;28;20557;-86
2021/05/02 10:11:11;;;;;;;10.47;7.47;;;10.00;74.40;;;;;;5056948;28;20259;-88
2021/05/02 10:13:41;;;;;;;10.80;7.50;;;9.90;74.80;;;;;;5058726;28;20246;-86
2021/05/02 10:16:07;;;;;;;8.37;6.73;;;10.00;74.50;;;;;;5059125;28;20179;-86
2021/05/02 10:18:35;;;;;;;8.63;7.77;;;10.00;72.80;;;;;;5058756;28;20669;-87
2021/05/02 10:21:02;;;;;;;8.80;7.10;;;10.00;74.00;;;;;;5059075;28;20182;-86
2021/05/02 10:23:27;;;;;;;8.67;7.50;;;10.30;73.20;;;;;;5055922;28;20215;-88
2021/05/02 10:25:56;;;;;;;15.10;7.27;;;10.30;73.30;;;;;;5056768;28;20264;-86
2021/05/02 10:28:25;;;;;;;8.83;7.10;;;10.80;73.80;;;;;;5057269;28;20168;-86
2021/05/02 10:30:54;;;;;;;15.87;7.17;;;10.80;70.20;;;;;;5056313;28;20218;-86
2021/05/02 10:33:50;;;;;;;7.87;7.10;;;10.70;76.10;;;;;;5055710;28;20191;-86
2021/05/02 10:36:24;;;;;;;6.90;5.93;;;10.70;77.80;;;;;;5052588;28;20199;-86
2021/05/02 10:39:00;;;;;;;6.40;5.80;;;10.70;77.00;;;;;;5054542;28;20165;-87
2021/05/02 10:41:36;;;;;;;7.10;6.13;;;10.30;77.40;;;;;;5055500;28;20242;-86
2021/05/02 10:44:07;;;;;;;6.20;5.60;;;10.00;77.50;;;;;;5055908;28;20196;-87
2021/05/02 10:46:42;;;;;;;5.87;5.27;;;10.00;78.40;;;;;;5055869;28;20252;-86
2021/05/02 10:49:08;;;;;;;8.07;5.93;;;9.60;79.00;;;;;;5055102;28;20174;-87
2021/05/02 10:51:34;;;;;;;7.53;5.77;;;9.50;80.10;;;;;;5054440;28;20175;-86
2021/05/02 10:54:10;;;;;;;6.93;6.07;;;9.30;80.90;;;;;;5054862;28;20206;-85
2021/05/02 10:56:49;;;;;;;7.40;6.40;;;9.30;80.00;;;;;;5056200;28;20571;-86
2021/05/02 10:59:16;;;;;;;7.03;6.33;;;9.40;80.60;;;;;;5054419;28;20234;-86
2021/05/02 11:01:41;;;;;;;8.53;7.20;;;9.30;79.80;;;;;;5054900;28;20204;-86
2021/05/02 11:04:07;;;;;;;9.03;7.63;;;9.30;80.40;;;;;;5152369;22;20227;-88
2021/05/02 11:06:39;;;;;;;9.07;7.63;;;9.30;80.30;;;;;;5052649;28;20239;-88
2021/05/02 11:09:07;;;;;;;7.63;6.87;;;9.40;80.70;;;;;;5053851;28;20545;-89
2021/05/02 11:11:35;;;;;;;7.93;6.97;;;9.30;81.00;;;;;;5053228;28;20210;-88
2021/05/02 11:14:10;;;;;;;8.70;7.37;;;9.20;81.20;;;;;;5053679;28;20262;-88
2021/05/02 11:16:43;;;;;;;7.70;6.53;;;9.00;80.50;;;;;;5053856;28;20173;-88
2021/05/02 11:19:24;;;;;;;7.20;6.50;;;9.00;80.70;;;;;;5052497;28;20632;-88
2021/05/02 11:21:52;;;;;;;9.63;6.20;;;9.20;79.90;;;;;;5052492;28;20176;-88
2021/05/02 11:24:22;;;;;;;7.83;6.13;;;9.20;79.90;;;;;;5052200;28;20223;-88
2021/05/02 11:29:34;;;;;;;6.33;5.73;;;9.40;79.00;;;;;;5054089;28;20688;-88
2021/05/02 11:32:00;;;;;;;6.87;6.13;;;9.50;78.50;;;;;;5052858;28;20176;-89
2021/05/02 11:34:26;;;;;;;6.83;5.80;;;9.60;77.20;;;;;;5052303;28;20249;-89
2021/05/02 11:36:52;;;;;;;5.57;5.07;;;9.70;75.90;;;;;;5052727;28;20176;-88
2021/05/02 11:39:30;;;;;;;5.10;4.70;;;9.80;76.10;;;;;;5052743;28;20566;-88
2021/05/02 11:42:07;;;;;;;4.70;4.30;;;10.00;74.90;;;;;;5052227;28;20657;-88
2021/05/02 11:44:35;;;;;;;5.67;4.83;;;10.10;74.30;;;;;;5053058;28;20191;-87
2021/05/02 11:47:09;;;;;;;5.30;4.80;;;10.20;75.70;;;;;;5053325;28;20184;-88
2021/05/02 11:49:36;;;;;;;3.73;3.43;;;10.30;75.70;;;;;;5051956;28;20283;-88
2021/05/02 11:52:01;;;;;;;2.30;2.10;;;10.30;74.20;;;;;;5051859;28;20541;-87
2021/05/02 11:54:27;;;;;;;2.57;2.37;;;10.10;73.70;;;;;;5051769;28;20196;-87
2021/05/02 11:56:53;;;;;;;4.30;3.27;;;9.70;73.80;;;;;;5051838;28;20171;-88
2021/05/02 11:59:19;;;;;;;4.63;4.10;;;9.60;74.90;;;;;;5051811;28;20171;-88
2021/05/02 12:01:48;;;;;;;7.20;4.30;;;9.50;76.90;;;;;;5053113;28;20172;-89
2021/05/02 12:04:19;;;;;;;5.33;4.53;;;9.10;79.20;;;;;;5053197;28;20199;-88
2021/05/02 12:06:47;;;;;;;8.53;4.80;;;9.20;79.20;;;;;;5052151;28;20183;-89
2021/05/02 12:09:17;;;;;;;6.90;3.90;;;9.20;79.60;;;;;;5051738;28;20659;-89
2021/05/02 12:11:45;;;;;;;3.97;3.50;;;9.10;79.40;;;;;;5052516;28;20521;-89
2021/05/02 12:14:19;;;;;;;3.70;3.40;;;8.90;78.80;;;;;;5053081;28;20187;-89
2021/05/02 12:16:55;;;;;;;6.90;4.70;;;8.90;78.70;;;;;;5053133;28;20175;-89
2021/05/02 12:19:22;;;;;;;4.20;3.80;;;8.90;78.70;;;;;;5051775;28;20175;-89
2021/05/02 12:21:49;;;;;;;4.20;3.77;;;9.00;79.70;;;;;;5052933;28;20234;-89
2021/05/02 12:24:25;;;;;;;3.70;3.40;;;9.30;79.20;;;;;;5053845;28;20593;-90
2021/05/02 12:27:00;;;;;;;4.10;3.20;;;9.60;78.90;;;;;;5053435;28;20157;-89
2021/05/02 12:29:25;;;;;;;3.77;2.50;;;9.70;78.90;;;;;;5052880;28;20156;-88
2021/05/02 12:31:51;;;;;;;2.90;2.57;;;9.80;76.90;;;;;;5052882;28;20168;-90
2021/05/02 12:34:17;;;;;;;2.57;2.37;;;9.80;74.70;;;;;;5051360;28;20200;-89
2021/05/02 12:36:43;;;;;;;7.53;4.30;;;9.80;74.90;;;;;;5052696;28;20202;-89
2021/05/02 12:39:12;;;;;;;2.27;2.07;;;9.70;74.70;;;;;;5051515;28;20179;-89
2021/05/02 12:41:39;;;;;;;2.30;2.10;;;10.00;75.30;;;;;;5051368;28;20208;-89
2021/05/02 12:44:15;;;;;;;2.13;2.00;;;10.30;76.60;;;;;;5051290;28;20206;-89
2021/05/02 12:46:59;;;;;;;3.30;2.37;;;10.80;77.10;;;;;;5051341;28;20261;-89
2021/05/02 12:49:31;;;;;;;4.17;2.20;;;10.90;75.50;;;;;;5053697;28;20164;-89
2021/05/02 12:52:10;;;;;;;2.47;2.27;;;11.00;75.70;;;;;;5056707;28;20164;-90